createdAt,value
2016-11-28T00:00:11.837Z,22.15
2016-11-28T00:00:52.373Z,22.14
2016-11-28T00:01:32.919Z,22.14
2016-11-28T00:02:13.465Z,22.16
2016-11-28T00:02:54.001Z,22.12
2016-11-28T00:03:34.547Z,22.12
2016-11-28T00:04:15.081Z,22.12
2016-11-28T00:04:55.611Z,22.16
2016-11-28T00:05:36.147Z,22.16
2016-11-28T00:06:16.684Z,22.14
2016-11-28T00:06:57.239Z,22.12
2016-11-28T00:07:37.783Z,22.12
2016-11-28T00:08:18.329Z,22.15
2016-11-28T00:08:58.871Z,22.16
2016-11-28T00:09:39.416Z,22.14
2016-11-28T00:10:19.958Z,22.15
2016-11-28T00:11:00.510Z,22.12
2016-11-28T00:11:41.041Z,22.15
2016-11-28T00:12:21.577Z,22.14
2016-11-28T00:13:02.125Z,22.16
2016-11-28T00:13:42.690Z,22.16
2016-11-28T00:14:23.227Z,22.19
2016-11-28T00:15:03.769Z,22.14
2016-11-28T00:15:44.324Z,22.18
2016-11-28T00:16:24.866Z,22.15
2016-11-28T00:17:05.421Z,22.15
2016-11-28T00:17:45.957Z,22.12
2016-11-28T00:18:26.517Z,22.15
2016-11-28T00:19:07.061Z,22.18
2016-11-28T00:19:47.599Z,22.15
2016-11-28T00:20:28.148Z,22.12
2016-11-28T00:21:08.695Z,22.16
2016-11-28T00:21:49.235Z,22.18
2016-11-28T00:22:29.768Z,22.14
2016-11-28T00:23:10.327Z,22.14
2016-11-28T00:23:50.874Z,22.18
2016-11-28T00:24:31.430Z,22.16
2016-11-28T00:25:11.971Z,22.18
2016-11-28T00:25:52.523Z,22.14
2016-11-28T00:26:33.072Z,22.14
2016-11-28T00:27:13.618Z,22.18
2016-11-28T00:27:54.164Z,22.18
2016-11-28T00:28:34.711Z,22.18
2016-11-28T00:29:15.245Z,22.21
2016-11-28T00:29:55.784Z,22.15
2016-11-28T00:30:36.342Z,22.12
2016-11-28T00:31:16.877Z,22.16
2016-11-28T00:31:57.430Z,22.19
2016-11-28T00:32:37.978Z,22.15
2016-11-28T00:33:18.544Z,22.16
2016-11-28T00:33:59.081Z,22.21
2016-11-28T00:34:39.625Z,22.15
2016-11-28T00:35:20.169Z,22.19
2016-11-28T00:36:00.717Z,22.18
2016-11-28T00:36:41.280Z,22.18
2016-11-28T00:37:21.824Z,22.23
2016-11-28T00:38:02.371Z,22.15
2016-11-28T00:38:42.912Z,22.15
2016-11-28T00:39:23.452Z,22.14
2016-11-28T00:40:03.987Z,22.19
2016-11-28T00:40:44.542Z,22.19
2016-11-28T00:41:25.087Z,22.18
2016-11-28T00:42:05.632Z,22.18
2016-11-28T00:42:46.172Z,22.18
2016-11-28T00:43:26.737Z,22.16
2016-11-28T00:44:07.258Z,22.19
2016-11-28T00:44:47.803Z,22.16
2016-11-28T00:45:28.338Z,22.16
2016-11-28T00:46:08.871Z,22.16
2016-11-28T00:46:49.424Z,22.14
2016-11-28T00:47:29.965Z,22.18
2016-11-28T00:48:10.510Z,22.12
2016-11-28T00:48:51.058Z,22.16
2016-11-28T00:49:31.600Z,22.18
2016-11-28T00:50:12.146Z,22.15
2016-11-28T00:50:52.684Z,22.15
2016-11-28T00:51:33.231Z,22.16
2016-11-28T00:52:13.771Z,22.16
2016-11-28T00:52:54.300Z,22.18
2016-11-28T00:53:34.855Z,22.14
2016-11-28T00:54:15.400Z,22.18
2016-11-28T00:54:55.946Z,22.12
2016-11-28T00:55:36.490Z,22.15
2016-11-28T00:56:17.024Z,22.18
2016-11-28T00:56:57.565Z,22.19
2016-11-28T00:57:38.117Z,22.14
2016-11-28T00:58:18.672Z,22.18
2016-11-28T00:58:59.225Z,22.15
2016-11-28T00:59:39.751Z,22.18
2016-11-28T01:00:20.292Z,22.18
2016-11-28T01:01:00.838Z,22.12
2016-11-28T01:01:41.382Z,22.1
2016-11-28T01:02:21.918Z,22.18
2016-11-28T01:03:02.458Z,22.16
2016-11-28T01:03:42.995Z,22.14
2016-11-28T01:04:23.536Z,22.12
2016-11-28T01:05:04.077Z,22.1
2016-11-28T01:05:44.628Z,22.15
2016-11-28T01:06:25.173Z,22.18
2016-11-28T01:07:05.720Z,22.16
2016-11-28T01:07:46.257Z,22.14
2016-11-28T01:08:26.802Z,22.18
2016-11-28T01:09:07.347Z,22.19
2016-11-28T01:09:47.889Z,22.19
2016-11-28T01:10:28.425Z,22.15
2016-11-28T01:11:08.970Z,22.16
2016-11-28T01:11:49.529Z,22.16
2016-11-28T01:12:30.067Z,22.12
2016-11-28T01:13:10.606Z,22.18
2016-11-28T01:13:51.151Z,22.16
2016-11-28T01:14:31.687Z,22.16
2016-11-28T01:15:12.225Z,22.18
2016-11-28T01:15:52.783Z,22.19
2016-11-28T01:16:33.322Z,22.18
2016-11-28T01:17:13.861Z,22.16
2016-11-28T01:17:54.398Z,22.16
2016-11-28T01:18:34.940Z,22.19
2016-11-28T01:19:15.494Z,22.15
2016-11-28T01:19:56.041Z,22.18
2016-11-28T01:20:36.593Z,22.12
2016-11-28T01:21:17.141Z,22.18
2016-11-28T01:21:57.685Z,22.18
2016-11-28T01:22:38.235Z,22.18
2016-11-28T01:23:18.784Z,22.16
2016-11-28T01:23:59.338Z,22.14
2016-11-28T01:24:39.878Z,22.14
2016-11-28T01:25:20.436Z,22.18
2016-11-28T01:26:00.972Z,22.18
2016-11-28T01:26:41.521Z,22.15
2016-11-28T01:27:22.057Z,22.15
2016-11-28T01:28:02.600Z,22.15
2016-11-28T01:28:43.151Z,22.14
2016-11-28T01:29:23.709Z,22.16
2016-11-28T01:30:04.263Z,22.15
2016-11-28T01:30:44.809Z,22.18
2016-11-28T01:31:25.358Z,22.15
2016-11-28T01:32:05.900Z,22.16
2016-11-28T01:32:46.446Z,22.15
2016-11-28T01:33:26.977Z,22.15
2016-11-28T01:34:07.520Z,22.16
2016-11-28T01:34:48.058Z,22.15
2016-11-28T01:35:28.616Z,22.21
2016-11-28T01:36:09.156Z,22.14
2016-11-28T01:36:49.706Z,22.22
2016-11-28T01:37:30.247Z,22.12
2016-11-28T01:38:10.785Z,22.15
2016-11-28T01:38:51.328Z,22.12
2016-11-28T01:39:31.868Z,22.12
2016-11-28T01:40:12.419Z,22.14
2016-11-28T01:40:52.968Z,22.19
2016-11-28T01:41:33.530Z,22.15
2016-11-28T01:42:14.062Z,22.12
2016-11-28T01:42:54.628Z,22.14
2016-11-28T01:43:35.165Z,22.18
2016-11-28T01:44:15.718Z,22.15
2016-11-28T01:44:56.260Z,22.15
2016-11-28T01:45:36.800Z,22.14
2016-11-28T01:46:17.364Z,22.18
2016-11-28T01:46:57.908Z,22.18
2016-11-28T01:47:38.454Z,22.15
2016-11-28T01:48:18.999Z,22.08
2016-11-28T01:48:59.540Z,22.12
2016-11-28T01:49:40.086Z,22.15
2016-11-28T01:50:20.632Z,22.12
2016-11-28T01:51:01.180Z,22.14
2016-11-28T01:51:41.771Z,22.16
2016-11-28T01:52:22.314Z,22.1
2016-11-28T01:53:02.859Z,22.12
2016-11-28T01:53:43.397Z,22.15
2016-11-28T01:54:23.945Z,22.19
2016-11-28T01:55:04.480Z,22.15
2016-11-28T01:55:45.011Z,22.14
2016-11-28T01:56:25.562Z,22.14
2016-11-28T01:57:06.100Z,22.19
2016-11-28T01:57:46.642Z,22.15
2016-11-28T01:58:27.187Z,22.14
2016-11-28T01:59:07.720Z,22.16
2016-11-28T01:59:48.260Z,22.08
2016-11-28T02:00:28.808Z,22.18
2016-11-28T02:01:09.351Z,22.14
2016-11-28T02:01:49.893Z,22.14
2016-11-28T02:02:30.451Z,22.14
2016-11-28T02:03:10.996Z,22.03
2016-11-28T02:03:51.559Z,22.15
2016-11-28T02:04:32.090Z,22.18
2016-11-28T02:05:12.648Z,22.12
2016-11-28T02:05:53.198Z,22.12
2016-11-28T02:06:33.743Z,22.1
2016-11-28T02:07:14.289Z,22.15
2016-11-28T02:07:54.846Z,22.12
2016-11-28T02:08:35.393Z,22.12
2016-11-28T02:09:15.933Z,22.1
2016-11-28T02:09:56.474Z,22.08
2016-11-28T02:10:37.020Z,22.15
2016-11-28T02:11:17.555Z,22.12
2016-11-28T02:11:58.094Z,22.1
2016-11-28T02:12:38.627Z,22.14
2016-11-28T02:13:19.165Z,22.19
2016-11-28T02:13:59.712Z,22.14
2016-11-28T02:14:40.248Z,22.06
2016-11-28T02:15:20.795Z,22.12
2016-11-28T02:16:01.339Z,22.18
2016-11-28T02:16:41.876Z,22.1
2016-11-28T02:17:22.420Z,22.07
2016-11-28T02:18:02.965Z,22.14
2016-11-28T02:18:43.505Z,22.15
2016-11-28T02:19:24.044Z,22.18
2016-11-28T02:20:04.592Z,22.15
2016-11-28T02:20:45.136Z,22.16
2016-11-28T02:21:25.680Z,22.12
2016-11-28T02:22:06.222Z,22.14
2016-11-28T02:22:46.787Z,22.1
2016-11-28T02:23:27.331Z,22.14
2016-11-28T02:24:07.855Z,22.14
2016-11-28T02:24:48.409Z,22.14
2016-11-28T02:25:28.953Z,22.08
2016-11-28T02:26:09.508Z,22.14
2016-11-28T02:26:50.052Z,22.16
2016-11-28T02:27:30.594Z,22.1
2016-11-28T02:28:11.142Z,22.15
2016-11-28T02:28:51.671Z,22.1
2016-11-28T02:29:32.220Z,22.21
2016-11-28T02:30:12.754Z,22.12
2016-11-28T02:30:53.296Z,22.15
2016-11-28T02:31:33.842Z,22.15
2016-11-28T02:32:14.374Z,22.18
2016-11-28T02:32:54.914Z,22.14
2016-11-28T02:33:35.457Z,22.16
2016-11-28T02:34:16.011Z,22.14
2016-11-28T02:34:56.556Z,22.16
2016-11-28T02:35:37.104Z,22.18
2016-11-28T02:36:17.643Z,22.15
2016-11-28T02:36:58.190Z,22.1
2016-11-28T02:37:38.737Z,22.1
2016-11-28T02:38:19.274Z,22.16
2016-11-28T02:38:59.812Z,22.15
2016-11-28T02:39:40.356Z,22.07
2016-11-28T02:40:20.900Z,22.12
2016-11-28T02:41:01.445Z,22.1
2016-11-28T02:41:41.975Z,22.16
2016-11-28T02:42:22.545Z,22.14
2016-11-28T02:43:03.080Z,22.14
2016-11-28T02:43:43.635Z,22.07
2016-11-28T02:44:24.177Z,22.12
2016-11-28T02:45:04.741Z,22.14
2016-11-28T02:45:45.287Z,22.1
2016-11-28T02:46:25.827Z,22.1
2016-11-28T02:47:06.367Z,22.14
2016-11-28T02:47:46.916Z,22.16
2016-11-28T02:48:27.455Z,22.15
2016-11-28T02:49:07.999Z,22.14
2016-11-28T02:49:48.548Z,22.14
2016-11-28T02:50:29.098Z,22.12
2016-11-28T02:51:09.650Z,22.1
2016-11-28T02:51:50.189Z,22.21
2016-11-28T02:52:30.757Z,22.07
2016-11-28T02:53:11.300Z,22.15
2016-11-28T02:53:51.847Z,22.08
2016-11-28T02:54:32.401Z,22.14
2016-11-28T02:55:12.933Z,22.16
2016-11-28T02:55:53.469Z,22.15
2016-11-28T02:56:34.018Z,22.15
2016-11-28T02:57:14.557Z,22.21
2016-11-28T02:57:55.099Z,22.08
2016-11-28T02:58:35.639Z,22.16
2016-11-28T02:59:16.178Z,22.14
2016-11-28T02:59:56.833Z,22.12
2016-11-28T03:00:37.388Z,22.1
2016-11-28T03:01:17.898Z,22.08
2016-11-28T03:01:58.432Z,22.14
2016-11-28T03:02:38.977Z,22.1
2016-11-28T03:03:19.517Z,22.15
2016-11-28T03:04:00.060Z,22.07
2016-11-28T03:04:40.611Z,22.08
2016-11-28T03:05:21.146Z,22.15
2016-11-28T03:06:01.687Z,22.12
2016-11-28T03:06:42.241Z,22.12
2016-11-28T03:07:22.772Z,22.14
2016-11-28T03:08:03.317Z,22.14
2016-11-28T03:08:43.861Z,22.12
2016-11-28T03:09:24.401Z,22.16
2016-11-28T03:10:04.940Z,22.12
2016-11-28T03:10:45.482Z,22.1
2016-11-28T03:11:26.027Z,22.16
2016-11-28T03:12:06.574Z,22.14
2016-11-28T03:12:47.114Z,22.21
2016-11-28T03:13:27.655Z,22.18
2016-11-28T03:14:08.201Z,22.16
2016-11-28T03:14:48.746Z,22.14
2016-11-28T03:15:29.281Z,22.1
2016-11-28T03:16:09.822Z,22.22
2016-11-28T03:16:50.369Z,22.15
2016-11-28T03:17:30.909Z,22.14
2016-11-28T03:18:11.445Z,22.19
2016-11-28T03:18:51.985Z,22.16
2016-11-28T03:19:32.531Z,22.1
2016-11-28T03:20:13.080Z,22.19
2016-11-28T03:20:53.611Z,22.14
2016-11-28T03:21:34.164Z,22.1
2016-11-28T03:22:14.719Z,22.1
2016-11-28T03:22:55.260Z,22.12
2016-11-28T03:23:35.806Z,22.14
2016-11-28T03:24:16.346Z,22.08
2016-11-28T03:24:56.903Z,22.14
2016-11-28T03:25:37.463Z,22.15
2016-11-28T03:26:18.007Z,22.14
2016-11-28T03:26:58.561Z,22.15
2016-11-28T03:27:39.112Z,22.15
2016-11-28T03:28:19.656Z,22.1
2016-11-28T03:29:00.194Z,22.12
2016-11-28T03:29:40.767Z,22.19
2016-11-28T03:30:21.313Z,22.08
2016-11-28T03:31:01.848Z,22.12
2016-11-28T03:31:42.397Z,22.15
2016-11-28T03:32:22.948Z,22.16
2016-11-28T03:33:03.496Z,22.06
2016-11-28T03:33:44.045Z,22.14
2016-11-28T03:34:24.605Z,22.14
2016-11-28T03:35:05.140Z,22.14
2016-11-28T03:35:45.703Z,22.15
2016-11-28T03:36:26.242Z,22.12
2016-11-28T03:37:06.800Z,22.16
2016-11-28T03:37:47.339Z,22.15
2016-11-28T03:38:27.877Z,22.14
2016-11-28T03:39:08.422Z,22.14
2016-11-28T03:39:48.960Z,22.14
2016-11-28T03:40:29.505Z,22.12
2016-11-28T03:41:10.045Z,22.18
2016-11-28T03:41:50.616Z,22.12
2016-11-28T03:42:31.151Z,22.14
2016-11-28T03:43:11.714Z,22.15
2016-11-28T03:43:52.256Z,22.14
2016-11-28T03:44:32.810Z,22.1
2016-11-28T03:45:13.354Z,22.18
2016-11-28T03:45:53.892Z,22.14
2016-11-28T03:46:34.436Z,22.03
2016-11-28T03:47:14.985Z,22.16
2016-11-28T03:47:55.533Z,22.12
2016-11-28T03:48:36.081Z,22.06
2016-11-28T03:49:16.623Z,22.18
2016-11-28T03:49:57.171Z,22.1
2016-11-28T03:50:37.730Z,22.1
2016-11-28T03:51:18.274Z,22.18
2016-11-28T03:51:58.825Z,22.16
2016-11-28T03:52:39.378Z,22.14
2016-11-28T03:53:19.929Z,22.16
2016-11-28T03:54:00.471Z,22.14
2016-11-28T03:54:41.016Z,22.18
2016-11-28T03:55:21.561Z,22.1
2016-11-28T03:56:02.091Z,22.16
2016-11-28T03:56:42.634Z,22.12
2016-11-28T03:57:23.171Z,22.15
2016-11-28T03:58:03.732Z,22.1
2016-11-28T03:58:44.280Z,22.12
2016-11-28T03:59:24.834Z,22.12
2016-11-28T04:00:05.367Z,22.08
2016-11-28T04:00:45.915Z,22.12
2016-11-28T04:01:26.457Z,22.1
2016-11-28T04:02:07.010Z,22.15
2016-11-28T04:02:47.550Z,22.1
2016-11-28T04:03:28.091Z,22.14
2016-11-28T04:04:08.642Z,22.14
2016-11-28T04:04:49.189Z,22.14
2016-11-28T04:05:29.739Z,22.12
2016-11-28T04:06:10.279Z,22.16
2016-11-28T04:06:50.851Z,22.14
2016-11-28T04:07:31.391Z,22.07
2016-11-28T04:08:11.928Z,22.15
2016-11-28T04:08:52.474Z,22.18
2016-11-28T04:09:33.017Z,22.18
2016-11-28T04:10:13.559Z,22.08
2016-11-28T04:10:54.092Z,22.15
2016-11-28T04:11:34.651Z,22.12
2016-11-28T04:12:15.192Z,22.12
2016-11-28T04:12:55.731Z,22.16
2016-11-28T04:13:36.268Z,22.14
2016-11-28T04:14:16.818Z,22.12
2016-11-28T04:14:57.356Z,22.07
2016-11-28T04:15:37.903Z,22.15
2016-11-28T04:16:18.448Z,22.16
2016-11-28T04:16:58.994Z,22.14
2016-11-28T04:17:39.532Z,22.16
2016-11-28T04:18:20.080Z,22.07
2016-11-28T04:19:00.631Z,22.1
2016-11-28T04:19:41.180Z,22.14
2016-11-28T04:20:21.711Z,22.08
2016-11-28T04:21:02.255Z,22.15
2016-11-28T04:21:42.791Z,22.07
2016-11-28T04:22:23.331Z,22.07
2016-11-28T04:23:03.871Z,22.04
2016-11-28T04:23:44.420Z,22.1
2016-11-28T04:24:24.970Z,22.06
2016-11-28T04:25:05.543Z,22.1
2016-11-28T04:25:46.079Z,22.1
2016-11-28T04:26:26.631Z,22.08
2016-11-28T04:27:07.174Z,22.12
2016-11-28T04:27:47.731Z,22.12
2016-11-28T04:28:28.273Z,22.14
2016-11-28T04:29:08.830Z,22.15
2016-11-28T04:29:49.371Z,22.19
2016-11-28T04:30:29.916Z,22.04
2016-11-28T04:31:10.460Z,22.15
2016-11-28T04:31:51.026Z,22.06
2016-11-28T04:32:31.581Z,22.14
2016-11-28T04:33:12.123Z,22.06
2016-11-28T04:33:52.685Z,22.06
2016-11-28T04:34:33.230Z,22.12
2016-11-28T04:35:13.778Z,22.1
2016-11-28T04:35:54.325Z,22.08
2016-11-28T04:36:34.874Z,22.03
2016-11-28T04:37:15.411Z,22.1
2016-11-28T04:37:55.959Z,22.07
2016-11-28T04:38:36.501Z,22.14
2016-11-28T04:39:17.052Z,22.08
2016-11-28T04:39:57.585Z,22.06
2016-11-28T04:40:38.115Z,22.03
2016-11-28T04:41:18.661Z,22.03
2016-11-28T04:41:59.213Z,22.12
2016-11-28T04:42:39.770Z,22.07
2016-11-28T04:43:20.308Z,22.12
2016-11-28T04:44:00.856Z,22.12
2016-11-28T04:44:41.406Z,22.12
2016-11-28T04:45:21.948Z,22.12
2016-11-28T04:46:02.492Z,22.15
2016-11-28T04:46:43.029Z,22.06
2016-11-28T04:47:23.572Z,22.12
2016-11-28T04:48:04.123Z,22.07
2016-11-28T04:48:44.665Z,22.12
2016-11-28T04:49:25.216Z,22.06
2016-11-28T04:50:05.761Z,22.07
2016-11-28T04:50:46.307Z,22.03
2016-11-28T04:51:26.862Z,22.06
2016-11-28T04:52:07.407Z,22.06
2016-11-28T04:52:47.945Z,22.08
2016-11-28T04:53:28.477Z,22.07
2016-11-28T04:54:09.017Z,22.08
2016-11-28T04:54:49.573Z,22.15
2016-11-28T04:55:30.099Z,22.1
2016-11-28T04:56:10.635Z,22.12
2016-11-28T04:56:51.179Z,22.1
2016-11-28T04:57:31.726Z,22.1
2016-11-28T04:58:12.267Z,22.06
2016-11-28T04:58:52.804Z,22.08
2016-11-28T04:59:33.332Z,22.07
2016-11-28T05:00:13.879Z,22.14
2016-11-28T05:00:54.419Z,22.1
2016-11-28T05:01:34.954Z,22.12
2016-11-28T05:02:15.500Z,22.08
2016-11-28T05:02:56.042Z,22.08
2016-11-28T05:03:36.585Z,22.07
2016-11-28T05:04:17.133Z,22.03
2016-11-28T05:04:57.674Z,22.06
2016-11-28T05:05:38.220Z,22.12
2016-11-28T05:06:18.758Z,22.08
2016-11-28T05:06:59.296Z,22.04
2016-11-28T05:07:39.836Z,22.08
2016-11-28T05:08:20.369Z,22.12
2016-11-28T05:09:00.915Z,22.08
2016-11-28T05:09:41.452Z,22.06
2016-11-28T05:10:21.996Z,22.08
2016-11-28T05:11:02.536Z,22.08
2016-11-28T05:11:43.085Z,22.12
2016-11-28T05:12:23.632Z,22.15
2016-11-28T05:13:04.176Z,22.04
2016-11-28T05:13:44.722Z,22.1
2016-11-28T05:14:25.267Z,22.03
2016-11-28T05:15:05.802Z,22.06
2016-11-28T05:15:46.342Z,22.08
2016-11-28T05:16:26.899Z,22.06
2016-11-28T05:17:07.439Z,22.04
2016-11-28T05:17:47.987Z,22.14
2016-11-28T05:18:28.522Z,22.1
2016-11-28T05:19:09.074Z,22.08
2016-11-28T05:19:49.615Z,22.06
2016-11-28T05:20:30.160Z,22.04
2016-11-28T05:21:10.715Z,22.12
2016-11-28T05:21:51.261Z,22.07
2016-11-28T05:22:31.809Z,22.1
2016-11-28T05:23:12.375Z,22.08
2016-11-28T05:23:52.908Z,22.08
2016-11-28T05:24:33.443Z,22.08
2016-11-28T05:25:13.999Z,22.14
2016-11-28T05:25:54.534Z,22.16
2016-11-28T05:26:35.085Z,22.08
2016-11-28T05:27:15.628Z,22.18
2016-11-28T05:27:56.183Z,22.08
2016-11-28T05:28:36.734Z,22.16
2016-11-28T05:29:17.265Z,22.15
2016-11-28T05:29:57.811Z,22.15
2016-11-28T05:30:38.348Z,22.04
2016-11-28T05:31:18.915Z,22.1
2016-11-28T05:31:59.452Z,22.16
2016-11-28T05:32:39.997Z,22.03
2016-11-28T05:33:20.540Z,22.06
2016-11-28T05:34:01.086Z,22.04
2016-11-28T05:34:41.628Z,22.18
2016-11-28T05:35:22.170Z,22.16
2016-11-28T05:36:02.726Z,22.14
2016-11-28T05:36:43.268Z,22.1
2016-11-28T05:37:23.824Z,22.16
2016-11-28T05:38:04.369Z,22.14
2016-11-28T05:38:44.925Z,22.14
2016-11-28T05:39:25.465Z,22.14
2016-11-28T05:40:06.001Z,22.19
2016-11-28T05:40:46.547Z,22.1
2016-11-28T05:41:27.107Z,22.15
2016-11-28T05:42:07.667Z,22.15
2016-11-28T05:42:48.215Z,22.07
2016-11-28T05:43:28.745Z,22.16
2016-11-28T05:44:09.287Z,22.16
2016-11-28T05:44:49.837Z,22.16
2016-11-28T05:45:30.382Z,22.14
2016-11-28T05:46:10.931Z,22.07
2016-11-28T05:46:51.472Z,22.14
2016-11-28T05:47:32.017Z,22.18
2016-11-28T05:48:12.550Z,22.07
2016-11-28T05:48:53.110Z,22.03
2016-11-28T05:49:33.650Z,22.01
2016-11-28T05:50:14.195Z,22.06
2016-11-28T05:50:54.752Z,22.08
2016-11-28T05:51:35.293Z,22.07
2016-11-28T05:52:15.833Z,22.03
2016-11-28T05:52:56.374Z,22.04
2016-11-28T05:53:36.902Z,22.01
2016-11-28T05:54:17.434Z,22.06
2016-11-28T05:54:57.977Z,22.04
2016-11-28T05:55:38.515Z,22.14
2016-11-28T05:56:19.048Z,22.12
2016-11-28T05:56:59.585Z,22.1
2016-11-28T05:57:40.133Z,22.08
2016-11-28T05:58:20.677Z,22.08
2016-11-28T05:59:01.214Z,22.01
2016-11-28T05:59:41.766Z,22.04
2016-11-28T06:00:22.306Z,22.14
2016-11-28T06:01:02.843Z,22.07
2016-11-28T06:01:43.389Z,22.03
2016-11-28T06:02:23.928Z,22.12
2016-11-28T06:03:04.470Z,22.14
2016-11-28T06:03:45.006Z,22.15
2016-11-28T06:04:25.554Z,22.14
2016-11-28T06:05:06.091Z,22.08
2016-11-28T06:05:46.631Z,22.12
2016-11-28T06:06:27.171Z,22.19
2016-11-28T06:07:07.716Z,22.14
2016-11-28T06:07:48.269Z,22.16
2016-11-28T06:08:28.804Z,22.25
2016-11-28T06:09:09.352Z,22.21
2016-11-28T06:09:49.898Z,22.22
2016-11-28T06:10:30.433Z,22.22
2016-11-28T06:11:10.981Z,22.16
2016-11-28T06:11:51.525Z,22.19
2016-11-28T06:12:32.061Z,22.22
2016-11-28T06:13:12.609Z,22.18
2016-11-28T06:13:53.155Z,22.25
2016-11-28T06:14:33.719Z,22.14
2016-11-28T06:15:14.263Z,22.14
2016-11-28T06:15:54.799Z,22.15
2016-11-28T06:16:35.348Z,22.19
2016-11-28T06:17:15.916Z,22.18
2016-11-28T06:17:56.457Z,22.15
2016-11-28T06:18:37.018Z,22.18
2016-11-28T06:19:17.563Z,22.16
2016-11-28T06:19:58.104Z,22.15
2016-11-28T06:20:38.644Z,22.15
2016-11-28T06:21:19.183Z,22.16
2016-11-28T06:21:59.719Z,22.22
2016-11-28T06:22:40.258Z,22.18
2016-11-28T06:23:20.801Z,22.12
2016-11-28T06:24:01.346Z,22.19
2016-11-28T06:24:41.897Z,22.14
2016-11-28T06:25:22.431Z,22.16
2016-11-28T06:26:02.982Z,22.21
2016-11-28T06:26:43.532Z,22.23
2016-11-28T06:27:24.077Z,22.25
2016-11-28T06:28:04.612Z,22.28
2016-11-28T06:28:45.165Z,22.3
2016-11-28T06:29:25.708Z,22.33
2016-11-28T06:30:06.250Z,22.28
2016-11-28T06:30:46.802Z,22.3
2016-11-28T06:31:27.313Z,22.22
2016-11-28T06:32:07.858Z,22.26
2016-11-28T06:32:48.402Z,22.19
2016-11-28T06:33:28.965Z,22.16
2016-11-28T06:34:09.501Z,22.22
2016-11-28T06:34:50.052Z,22.16
2016-11-28T06:35:30.600Z,22.18
2016-11-28T06:36:11.142Z,22.18
2016-11-28T06:36:51.714Z,22.14
2016-11-28T06:37:32.252Z,22.12
2016-11-28T06:38:12.794Z,22.18
2016-11-28T06:38:53.333Z,22.15
2016-11-28T06:39:33.876Z,22.15
2016-11-28T06:40:14.416Z,22.15
2016-11-28T06:40:54.971Z,22.18
2016-11-28T06:41:35.518Z,22.14
2016-11-28T06:42:16.068Z,22.16
2016-11-28T06:42:56.610Z,22.04
2016-11-28T06:43:37.146Z,22.06
2016-11-28T06:44:17.682Z,22.04
2016-11-28T06:44:58.222Z,22.14
2016-11-28T06:45:38.765Z,22.22
2016-11-28T06:46:19.305Z,22.06
2016-11-28T06:46:59.847Z,22.04
2016-11-28T06:47:40.393Z,22.06
2016-11-28T06:48:20.930Z,22.14
2016-11-28T06:49:01.482Z,22.12
2016-11-28T06:49:42.031Z,22.14
2016-11-28T06:50:22.575Z,22.03
2016-11-28T06:51:03.130Z,22.04
2016-11-28T06:51:43.688Z,22.14
2016-11-28T06:52:24.202Z,22
2016-11-28T06:53:04.739Z,22.04
2016-11-28T06:53:45.279Z,22.07
2016-11-28T06:54:25.821Z,22.12
2016-11-28T06:55:06.364Z,22.06
2016-11-28T06:55:46.914Z,22
2016-11-28T06:56:27.460Z,22.03
2016-11-28T06:57:08.008Z,22.06
2016-11-28T06:57:48.553Z,22.04
2016-11-28T06:58:29.094Z,22.08
2016-11-28T06:59:09.641Z,22.12
2016-11-28T06:59:50.180Z,22.03
2016-11-28T07:00:30.726Z,22.08
2016-11-28T07:01:11.265Z,22.15
2016-11-28T07:01:51.815Z,22.08
2016-11-28T07:02:32.353Z,22.08
2016-11-28T07:03:12.901Z,22.06
2016-11-28T07:03:53.435Z,22.14
2016-11-28T07:04:33.987Z,22
2016-11-28T07:05:14.528Z,22.04
2016-11-28T07:05:55.084Z,22.07
2016-11-28T07:06:35.618Z,22.08
2016-11-28T07:07:16.164Z,22.08
2016-11-28T07:07:56.708Z,22.08
2016-11-28T07:08:37.265Z,22.03
2016-11-28T07:09:17.808Z,22.04
2016-11-28T07:09:58.352Z,22.08
2016-11-28T07:10:38.900Z,22.08
2016-11-28T07:11:19.446Z,22.03
2016-11-28T07:11:59.998Z,22.07
2016-11-28T07:12:40.542Z,22
2016-11-28T07:13:21.088Z,22.1
2016-11-28T07:14:01.623Z,22.03
2016-11-28T07:14:42.167Z,22.08
2016-11-28T07:15:22.701Z,22.12
2016-11-28T07:16:03.251Z,22.12
2016-11-28T07:16:43.793Z,22.07
2016-11-28T07:17:24.343Z,22.06
2016-11-28T07:18:04.893Z,22.08
2016-11-28T07:18:45.435Z,22.1
2016-11-28T07:19:26.003Z,22.1
2016-11-28T07:20:06.544Z,22.08
2016-11-28T07:20:47.096Z,22.06
2016-11-28T07:21:27.638Z,22.08
2016-11-28T07:22:08.178Z,22.03
2016-11-28T07:22:48.711Z,22.07
2016-11-28T07:23:29.262Z,22.01
2016-11-28T07:24:09.810Z,22.08
2016-11-28T07:24:50.354Z,22.07
2016-11-28T07:25:30.906Z,22.04
2016-11-28T07:26:11.434Z,22.07
2016-11-28T07:26:51.973Z,22.07
2016-11-28T07:27:32.517Z,22.04
2016-11-28T07:28:13.073Z,22.12
2016-11-28T07:28:53.621Z,22.07
2016-11-28T07:29:34.162Z,22.01
2016-11-28T07:30:14.703Z,22.06
2016-11-28T07:30:55.241Z,22.03
2016-11-28T07:31:35.783Z,22.06
2016-11-28T07:32:16.327Z,22.1
2016-11-28T07:32:56.880Z,22.07
2016-11-28T07:33:37.431Z,22.07
2016-11-28T07:34:17.987Z,22
2016-11-28T07:34:58.535Z,22.08
2016-11-28T07:35:39.085Z,21.97
2016-11-28T07:36:19.622Z,21.97
2016-11-28T07:37:00.158Z,22.07
2016-11-28T07:37:40.710Z,22.04
2016-11-28T07:38:21.254Z,22.1
2016-11-28T07:39:01.818Z,22.07
2016-11-28T07:39:42.369Z,22.03
2016-11-28T07:40:22.910Z,21.99
2016-11-28T07:41:03.450Z,22.07
2016-11-28T07:41:43.998Z,22.01
2016-11-28T07:42:24.538Z,22.14
2016-11-28T07:43:05.088Z,22.01
2016-11-28T07:43:45.630Z,22.01
2016-11-28T07:44:26.166Z,22
2016-11-28T07:45:06.720Z,22.01
2016-11-28T07:45:47.267Z,22
2016-11-28T07:46:27.804Z,22.07
2016-11-28T07:47:08.334Z,22.07
2016-11-28T07:47:48.864Z,22
2016-11-28T07:48:29.400Z,22.04
2016-11-28T07:49:09.937Z,22.01
2016-11-28T07:49:50.483Z,22
2016-11-28T07:50:31.030Z,22.04
2016-11-28T07:51:11.573Z,22.1
2016-11-28T07:51:52.109Z,22.07
2016-11-28T07:52:32.655Z,22.01
2016-11-28T07:53:13.206Z,22.04
2016-11-28T07:53:53.770Z,22.15
2016-11-28T07:54:34.290Z,22.04
2016-11-28T07:55:14.848Z,22.1
2016-11-28T07:55:55.395Z,22.01
2016-11-28T07:56:35.933Z,22.03
2016-11-28T07:57:16.478Z,22.1
2016-11-28T07:57:57.026Z,22.04
2016-11-28T07:58:37.578Z,22.07
2016-11-28T07:59:18.116Z,22.04
2016-11-28T07:59:58.660Z,22
2016-11-28T08:00:39.205Z,22.01
2016-11-28T08:01:19.743Z,22.07
2016-11-28T08:02:00.283Z,22.03
2016-11-28T08:02:40.820Z,22.07
2016-11-28T08:03:21.364Z,22.1
2016-11-28T08:04:01.901Z,22.12
2016-11-28T08:04:42.439Z,22.07
2016-11-28T08:05:22.987Z,22.01
2016-11-28T08:06:03.533Z,22.01
2016-11-28T08:06:44.077Z,22.08
2016-11-28T08:07:24.608Z,22.06
2016-11-28T08:08:05.164Z,22.04
2016-11-28T08:08:45.701Z,21.97
2016-11-28T08:09:26.249Z,22
2016-11-28T08:10:06.807Z,22.1
2016-11-28T08:10:47.330Z,22.07
2016-11-28T08:11:27.872Z,22.06
2016-11-28T08:12:08.412Z,22.12
2016-11-28T08:12:48.972Z,22.08
2016-11-28T08:13:29.505Z,22.03
2016-11-28T08:14:10.065Z,22.08
2016-11-28T08:14:50.609Z,22.03
2016-11-28T08:15:31.147Z,22.08
2016-11-28T08:16:11.690Z,22.03
2016-11-28T08:16:52.236Z,22.08
2016-11-28T08:17:32.783Z,22.06
2016-11-28T08:18:13.330Z,22.06
2016-11-28T08:18:53.874Z,22.04
2016-11-28T08:19:34.409Z,22.08
2016-11-28T08:20:14.952Z,22.06
2016-11-28T08:20:55.504Z,22.08
2016-11-28T08:21:36.038Z,21.99
2016-11-28T08:22:16.594Z,22.01
2016-11-28T08:22:57.142Z,22.03
2016-11-28T08:23:37.687Z,22.1
2016-11-28T08:24:18.232Z,22.07
2016-11-28T08:24:58.766Z,22.12
2016-11-28T08:25:39.307Z,22.07
2016-11-28T08:26:19.848Z,22.04
2016-11-28T08:27:00.391Z,22.07
2016-11-28T08:27:40.921Z,22.07
2016-11-28T08:28:21.464Z,22.01
2016-11-28T08:29:02.001Z,22.1
2016-11-28T08:29:42.548Z,22.1
2016-11-28T08:30:23.082Z,22.06
2016-11-28T08:31:03.633Z,22.06
2016-11-28T08:31:44.172Z,22.01
2016-11-28T08:32:24.719Z,22.1
2016-11-28T08:33:05.267Z,22.03
2016-11-28T08:33:45.822Z,22.07
2016-11-28T08:34:26.369Z,22.08
2016-11-28T08:35:06.910Z,22.08
2016-11-28T08:35:47.454Z,22.08
2016-11-28T08:36:27.990Z,22.1
2016-11-28T08:37:08.533Z,22.03
2016-11-28T08:37:49.078Z,22.08
2016-11-28T08:38:29.615Z,22.12
2016-11-28T08:39:10.158Z,22.08
2016-11-28T08:39:50.698Z,22.07
2016-11-28T08:40:31.239Z,22
2016-11-28T08:41:11.781Z,22.03
2016-11-28T08:41:52.324Z,22.1
2016-11-28T08:42:32.864Z,22.1
2016-11-28T08:43:13.434Z,22.06
2016-11-28T08:43:53.977Z,22.06
2016-11-28T08:44:34.529Z,22.08